sensor_id;sensor_type;location;lat;lon;timestamp;temperature;humidity
316;DHT22;14128;48.686;9.738;2023-06-24T00:02:12;14.90;99.90
316;DHT22;14128;48.686;9.738;2023-06-24T00:04:39;14.80;99.90
316;DHT22;14128;48.686;9.738;2023-06-24T00:07:06;14.80;1.00
316;DHT22;14128;48.686;9.738;2023-06-24T00:09:33;14.70;99.90
316;DHT22;14128;48.686;9.738;2023-06-24T00:12:02;14.60;99.90
316;DHT22;14128;48.686;9.738;2023-06-24T00:14:29;14.60;1.00
316;DHT22;14128;48.686;9.738;2023-06-24T00:16:56;14.40;1.00
316;DHT22;14128;48.686;9.738;2023-06-24T00:19:24;14.40;99.90
316;DHT22;14128;48.686;9.738;2023-06-24T00:21:52;14.30;1.00
316;DHT22;14128;48.686;9.738;2023-06-24T00:24:19;14.30;99.90
316;DHT22;14128;48.686;9.738;2023-06-24T00:26:51;14.20;1.00
316;DHT22;14128;48.686;9.738;2023-06-24T00:29:19;14.10;99.90
316;DHT22;14128;48.686;9.738;2023-06-24T00:31:46;14.10;99.90
316;DHT22;14128;48.686;9.738;2023-06-24T00:34:13;14.10;1.00
316;DHT22;14128;48.686;9.738;2023-06-24T00:36:40;14.10;99.90
316;DHT22;14128;48.686;9.738;2023-06-24T00:39:09;14.10;1.00
316;DHT22;14128;48.686;9.738;2023-06-24T00:41:36;14.00;1.00
316;DHT22;14128;48.686;9.738;2023-06-24T00:44:03;14.00;99.90
316;DHT22;14128;48.686;9.738;2023-06-24T00:46:31;13.90;99.90
316;DHT22;14128;48.686;9.738;2023-06-24T00:48:59;14.00;1.00
316;DHT22;14128;48.686;9.738;2023-06-24T00:51:26;14.10;11.30
316;DHT22;14128;48.686;9.738;2023-06-24T00:53:56;14.20;99.90
316;DHT22;14128;48.686;9.738;2023-06-24T00:56:27;14.30;99.90
316;DHT22;14128;48.686;9.738;2023-06-24T00:58:54;14.30;85.90
316;DHT22;14128;48.686;9.738;2023-06-24T01:01:22;14.20;99.90
316;DHT22;14128;48.686;9.738;2023-06-24T01:03:51;14.20;1.00
316;DHT22;14128;48.686;9.738;2023-06-24T01:06:18;14.10;1.00
316;DHT22;14128;48.686;9.738;2023-06-24T01:08:45;14.00;99.90
316;DHT22;14128;48.686;9.738;2023-06-24T01:11:16;13.90;1.00
316;DHT22;14128;48.686;9.738;2023-06-24T01:13:43;13.80;99.90
316;DHT22;14128;48.686;9.738;2023-06-24T01:16:14;13.70;1.00
316;DHT22;14128;48.686;9.738;2023-06-24T01:18:47;13.60;1.00
316;DHT22;14128;48.686;9.738;2023-06-24T01:21:21;13.50;99.90
316;DHT22;14128;48.686;9.738;2023-06-24T01:24:16;13.40;99.90
316;DHT22;14128;48.686;9.738;2023-06-24T01:29:52;13.30;7.30
316;DHT22;14128;48.686;9.738;2023-06-24T01:32:29;13.30;43.10
316;DHT22;14128;48.686;9.738;2023-06-24T01:35:02;13.20;99.90
316;DHT22;14128;48.686;9.738;2023-06-24T01:37:35;13.10;44.70
316;DHT22;14128;48.686;9.738;2023-06-24T01:40:07;13.20;99.90
316;DHT22;14128;48.686;9.738;2023-06-24T01:42:38;13.10;1.00
316;DHT22;14128;48.686;9.738;2023-06-24T01:45:07;13.00;99.90
316;DHT22;14128;48.686;9.738;2023-06-24T01:47:37;13.00;1.00
316;DHT22;14128;48.686;9.738;2023-06-24T01:50:10;12.90;1.00
316;DHT22;14128;48.686;9.738;2023-06-24T01:52:38;12.90;99.90
316;DHT22;14128;48.686;9.738;2023-06-24T01:55:10;12.80;99.90
316;DHT22;14128;48.686;9.738;2023-06-24T01:57:38;12.80;42.40
316;DHT22;14128;48.686;9.738;2023-06-24T02:00:08;12.70;99.90
316;DHT22;14128;48.686;9.738;2023-06-24T02:02:38;12.70;99.90
316;DHT22;14128;48.686;9.738;2023-06-24T02:05:07;12.70;99.90
316;DHT22;14128;48.686;9.738;2023-06-24T02:07:36;12.60;99.90
316;DHT22;14128;48.686;9.738;2023-06-24T02:10:05;12.60;1.00
316;DHT22;14128;48.686;9.738;2023-06-24T02:12:33;12.60;19.10
316;DHT22;14128;48.686;9.738;2023-06-24T02:15:02;12.60;99.90
316;DHT22;14128;48.686;9.738;2023-06-24T02:17:32;12.60;99.90
316;DHT22;14128;48.686;9.738;2023-06-24T02:20:01;12.50;1.00
316;DHT22;14128;48.686;9.738;2023-06-24T02:22:30;12.50;1.00
316;DHT22;14128;48.686;9.738;2023-06-24T02:24:58;12.50;1.00
316;DHT22;14128;48.686;9.738;2023-06-24T02:27:25;12.50;99.90
316;DHT22;14128;48.686;9.738;2023-06-24T02:29:52;12.40;99.90
316;DHT22;14128;48.686;9.738;2023-06-24T02:32:20;12.50;99.90
316;DHT22;14128;48.686;9.738;2023-06-24T02:34:47;12.40;1.00
316;DHT22;14128;48.686;9.738;2023-06-24T02:37:15;12.40;99.90
316;DHT22;14128;48.686;9.738;2023-06-24T02:39:42;12.30;99.90
316;DHT22;14128;48.686;9.738;2023-06-24T02:42:10;12.30;99.90
316;DHT22;14128;48.686;9.738;2023-06-24T02:44:38;12.30;99.90
316;DHT22;14128;48.686;9.738;2023-06-24T02:47:07;12.30;1.00
316;DHT22;14128;48.686;9.738;2023-06-24T02:49:35;12.30;99.90
316;DHT22;14128;48.686;9.738;2023-06-24T02:52:03;12.30;1.00
316;DHT22;14128;48.686;9.738;2023-06-24T02:54:32;12.20;99.90
316;DHT22;14128;48.686;9.738;2023-06-24T02:56:59;12.20;1.00
316;DHT22;14128;48.686;9.738;2023-06-24T02:59:27;12.20;99.90
316;DHT22;14128;48.686;9.738;2023-06-24T03:01:54;12.10;99.90
316;DHT22;14128;48.686;9.738;2023-06-24T03:04:21;12.10;99.90
316;DHT22;14128;48.686;9.738;2023-06-24T03:06:48;12.10;99.90
316;DHT22;14128;48.686;9.738;2023-06-24T03:09:16;12.00;99.90
316;DHT22;14128;48.686;9.738;2023-06-24T03:11:45;12.00;1.00
316;DHT22;14128;48.686;9.738;2023-06-24T03:14:12;12.00;99.90
316;DHT22;14128;48.686;9.738;2023-06-24T03:16:39;12.00;99.90
316;DHT22;14128;48.686;9.738;2023-06-24T03:19:06;12.00;86.50
316;DHT22;14128;48.686;9.738;2023-06-24T03:21:33;12.00;39.50
316;DHT22;14128;48.686;9.738;2023-06-24T03:24:00;12.00;81.10
316;DHT22;14128;48.686;9.738;2023-06-24T03:26:31;12.00;53.70
316;DHT22;14128;48.686;9.738;2023-06-24T03:29:00;12.00;99.90
316;DHT22;14128;48.686;9.738;2023-06-24T03:31:27;12.00;99.90
316;DHT22;14128;48.686;9.738;2023-06-24T03:33:54;12.10;1.00
316;DHT22;14128;48.686;9.738;2023-06-24T03:36:20;12.10;68.80
316;DHT22;14128;48.686;9.738;2023-06-24T03:38:47;12.10;99.90
316;DHT22;14128;48.686;9.738;2023-06-24T03:41:14;12.20;99.90
316;DHT22;14128;48.686;9.738;2023-06-24T03:43:41;12.20;99.90
316;DHT22;14128;48.686;9.738;2023-06-24T03:46:10;12.20;99.90
316;DHT22;14128;48.686;9.738;2023-06-24T03:48:37;12.20;1.00
316;DHT22;14128;48.686;9.738;2023-06-24T03:51:04;12.20;99.90
316;DHT22;14128;48.686;9.738;2023-06-24T03:53:31;12.30;1.00
316;DHT22;14128;48.686;9.738;2023-06-24T03:55:58;12.30;1.00
316;DHT22;14128;48.686;9.738;2023-06-24T03:58:26;12.30;1.00
316;DHT22;14128;48.686;9.738;2023-06-24T04:00:53;12.30;99.90
316;DHT22;14128;48.686;9.738;2023-06-24T04:03:23;12.40;1.00
316;DHT22;14128;48.686;9.738;2023-06-24T04:05:52;12.50;81.20
316;DHT22;14128;48.686;9.738;2023-06-24T04:08:19;12.50;1.00
316;DHT22;14128;48.686;9.738;2023-06-24T04:10:46;12.60;1.00
316;DHT22;14128;48.686;9.738;2023-06-24T04:13:13;12.70;55.90
316;DHT22;14128;48.686;9.738;2023-06-24T04:15:40;12.70;99.90
316;DHT22;14128;48.686;9.738;2023-06-24T04:18:07;12.80;99.90
316;DHT22;14128;48.686;9.738;2023-06-24T04:20:35;12.80;99.90
316;DHT22;14128;48.686;9.738;2023-06-24T04:23:03;12.90;1.00
316;DHT22;14128;48.686;9.738;2023-06-24T04:25:29;13.00;99.90
316;DHT22;14128;48.686;9.738;2023-06-24T04:27:56;13.00;99.90
316;DHT22;14128;48.686;9.738;2023-06-24T04:30:23;13.10;99.90
316;DHT22;14128;48.686;9.738;2023-06-24T04:32:50;13.20;1.00
316;DHT22;14128;48.686;9.738;2023-06-24T04:35:17;13.20;1.00
316;DHT22;14128;48.686;9.738;2023-06-24T04:37:45;13.30;99.90
316;DHT22;14128;48.686;9.738;2023-06-24T04:40:12;13.30;1.00
316;DHT22;14128;48.686;9.738;2023-06-24T04:42:39;13.40;1.00
316;DHT22;14128;48.686;9.738;2023-06-24T04:45:07;13.50;1.00
316;DHT22;14128;48.686;9.738;2023-06-24T04:47:34;13.50;99.90
316;DHT22;14128;48.686;9.738;2023-06-24T04:50:01;13.60;1.00
316;DHT22;14128;48.686;9.738;2023-06-24T04:52:28;13.70;99.90
316;DHT22;14128;48.686;9.738;2023-06-24T04:54:56;13.80;1.00
316;DHT22;14128;48.686;9.738;2023-06-24T04:57:25;13.90;1.00
316;DHT22;14128;48.686;9.738;2023-06-24T04:59:52;13.90;99.90
316;DHT22;14128;48.686;9.738;2023-06-24T05:02:19;14.00;1.00
316;DHT22;14128;48.686;9.738;2023-06-24T05:04:46;14.00;55.40
316;DHT22;14128;48.686;9.738;2023-06-24T05:07:13;14.10;99.90
316;DHT22;14128;48.686;9.738;2023-06-24T05:09:40;14.20;99.90
316;DHT22;14128;48.686;9.738;2023-06-24T05:12:08;14.30;19.80
316;DHT22;14128;48.686;9.738;2023-06-24T05:14:36;14.30;99.90
316;DHT22;14128;48.686;9.738;2023-06-24T05:17:03;14.40;1.00
316;DHT22;14128;48.686;9.738;2023-06-24T05:19:30;14.40;99.90
316;DHT22;14128;48.686;9.738;2023-06-24T05:21:57;14.50;9.90
316;DHT22;14128;48.686;9.738;2023-06-24T05:24:24;14.60;99.90
316;DHT22;14128;48.686;9.738;2023-06-24T05:26:51;14.70;13.60
316;DHT22;14128;48.686;9.738;2023-06-24T05:29:19;14.80;1.00
316;DHT22;14128;48.686;9.738;2023-06-24T05:31:46;14.90;1.00
316;DHT22;14128;48.686;9.738;2023-06-24T05:34:14;15.00;99.90
316;DHT22;14128;48.686;9.738;2023-06-24T05:36:41;15.10;59.80
316;DHT22;14128;48.686;9.738;2023-06-24T05:39:08;15.20;99.90
316;DHT22;14128;48.686;9.738;2023-06-24T05:41:35;15.20;1.00
316;DHT22;14128;48.686;9.738;2023-06-24T05:44:03;15.40;99.90
316;DHT22;14128;48.686;9.738;2023-06-24T05:46:31;15.40;99.90
316;DHT22;14128;48.686;9.738;2023-06-24T05:48:58;15.60;1.00
316;DHT22;14128;48.686;9.738;2023-06-24T05:51:25;15.70;1.00
316;DHT22;14128;48.686;9.738;2023-06-24T05:53:52;15.80;99.90
316;DHT22;14128;48.686;9.738;2023-06-24T05:56:20;15.90;7.90
316;DHT22;14128;48.686;9.738;2023-06-24T05:58:47;16.10;99.90
316;DHT22;14128;48.686;9.738;2023-06-24T06:01:14;16.20;64.60
316;DHT22;14128;48.686;9.738;2023-06-24T06:03:43;16.30;99.90
316;DHT22;14128;48.686;9.738;2023-06-24T06:06:09;16.50;99.90
316;DHT22;14128;48.686;9.738;2023-06-24T06:08:36;16.50;1.00
316;DHT22;14128;48.686;9.738;2023-06-24T06:11:03;16.70;1.00
316;DHT22;14128;48.686;9.738;2023-06-24T06:13:31;16.80;32.60
316;DHT22;14128;48.686;9.738;2023-06-24T06:15:58;16.90;99.90
316;DHT22;14128;48.686;9.738;2023-06-24T06:18:25;17.00;1.00
316;DHT22;14128;48.686;9.738;2023-06-24T06:20:53;17.10;99.90
316;DHT22;14128;48.686;9.738;2023-06-24T06:23:20;17.20;99.90
316;DHT22;14128;48.686;9.738;2023-06-24T06:25:47;17.30;1.00
316;DHT22;14128;48.686;9.738;2023-06-24T06:28:14;17.30;99.90
316;DHT22;14128;48.686;9.738;2023-06-24T06:30:41;17.40;99.90
316;DHT22;14128;48.686;9.738;2023-06-24T06:33:07;17.50;99.90
316;DHT22;14128;48.686;9.738;2023-06-24T06:35:34;17.60;99.90
316;DHT22;14128;48.686;9.738;2023-06-24T06:38:02;17.80;16.60
316;DHT22;14128;48.686;9.738;2023-06-24T06:40:29;18.00;99.90
316;DHT22;14128;48.686;9.738;2023-06-24T06:42:56;18.10;66.20
316;DHT22;14128;48.686;9.738;2023-06-24T06:45:23;18.20;99.90
316;DHT22;14128;48.686;9.738;2023-06-24T06:47:50;18.30;99.90
316;DHT22;14128;48.686;9.738;2023-06-24T06:50:17;18.50;86.40
316;DHT22;14128;48.686;9.738;2023-06-24T06:52:44;18.50;99.90
316;DHT22;14128;48.686;9.738;2023-06-24T06:55:12;18.50;99.90
316;DHT22;14128;48.686;9.738;2023-06-24T06:57:39;18.60;99.90
316;DHT22;14128;48.686;9.738;2023-06-24T07:00:07;18.60;99.90
316;DHT22;14128;48.686;9.738;2023-06-24T07:02:33;18.70;1.00
316;DHT22;14128;48.686;9.738;2023-06-24T07:05:00;18.90;1.00
316;DHT22;14128;48.686;9.738;2023-06-24T07:07:27;18.90;1.00
316;DHT22;14128;48.686;9.738;2023-06-24T07:09:54;19.00;99.90
316;DHT22;14128;48.686;9.738;2023-06-24T07:12:23;19.00;99.90
316;DHT22;14128;48.686;9.738;2023-06-24T07:14:50;19.10;1.40
316;DHT22;14128;48.686;9.738;2023-06-24T07:17:17;19.30;1.00
316;DHT22;14128;48.686;9.738;2023-06-24T07:19:44;19.30;1.40
316;DHT22;14128;48.686;9.738;2023-06-24T07:22:11;19.40;99.90
316;DHT22;14128;48.686;9.738;2023-06-24T07:24:38;19.50;99.90
316;DHT22;14128;48.686;9.738;2023-06-24T07:27:05;19.60;1.00
316;DHT22;14128;48.686;9.738;2023-06-24T07:29:34;19.70;99.90
316;DHT22;14128;48.686;9.738;2023-06-24T07:32:01;19.70;98.00
316;DHT22;14128;48.686;9.738;2023-06-24T07:34:29;19.80;1.00
316;DHT22;14128;48.686;9.738;2023-06-24T07:36:56;19.90;16.30
316;DHT22;14128;48.686;9.738;2023-06-24T07:39:23;20.00;99.90
316;DHT22;14128;48.686;9.738;2023-06-24T07:41:50;20.10;99.90
316;DHT22;14128;48.686;9.738;2023-06-24T07:44:17;20.20;1.00
316;DHT22;14128;48.686;9.738;2023-06-24T07:46:46;20.20;55.60
316;DHT22;14128;48.686;9.738;2023-06-24T07:49:14;20.30;1.00
316;DHT22;14128;48.686;9.738;2023-06-24T07:51:40;20.50;99.90
316;DHT22;14128;48.686;9.738;2023-06-24T07:54:07;20.60;99.90
316;DHT22;14128;48.686;9.738;2023-06-24T07:56:34;20.50;99.90
316;DHT22;14128;48.686;9.738;2023-06-24T07:59:01;20.50;1.00
316;DHT22;14128;48.686;9.738;2023-06-24T08:01:28;20.60;1.00
316;DHT22;14128;48.686;9.738;2023-06-24T08:03:56;20.60;1.00
316;DHT22;14128;48.686;9.738;2023-06-24T08:06:23;20.70;1.00
316;DHT22;14128;48.686;9.738;2023-06-24T08:08:49;20.90;99.90
316;DHT22;14128;48.686;9.738;2023-06-24T08:11:16;20.90;99.90
316;DHT22;14128;48.686;9.738;2023-06-24T08:13:43;20.90;99.90
316;DHT22;14128;48.686;9.738;2023-06-24T08:16:10;20.90;1.40
316;DHT22;14128;48.686;9.738;2023-06-24T08:18:37;21.10;99.90
316;DHT22;14128;48.686;9.738;2023-06-24T08:21:06;21.10;99.90
316;DHT22;14128;48.686;9.738;2023-06-24T08:23:33;21.10;99.90
316;DHT22;14128;48.686;9.738;2023-06-24T08:25:59;21.20;99.90
316;DHT22;14128;48.686;9.738;2023-06-24T08:28:26;21.20;1.40
316;DHT22;14128;48.686;9.738;2023-06-24T08:30:53;21.30;99.90
316;DHT22;14128;48.686;9.738;2023-06-24T08:33:20;21.30;1.40
316;DHT22;14128;48.686;9.738;2023-06-24T08:35:47;21.30;1.40
316;DHT22;14128;48.686;9.738;2023-06-24T08:38:15;21.40;96.10
316;DHT22;14128;48.686;9.738;2023-06-24T08:40:42;21.50;1.00
316;DHT22;14128;48.686;9.738;2023-06-24T08:43:10;21.70;58.30
316;DHT22;14128;48.686;9.738;2023-06-24T08:45:38;21.90;99.90
316;DHT22;14128;48.686;9.738;2023-06-24T08:48:05;21.90;1.00
316;DHT22;14128;48.686;9.738;2023-06-24T08:50:36;22.00;99.90
316;DHT22;14128;48.686;9.738;2023-06-24T08:53:07;22.10;99.90
316;DHT22;14128;48.686;9.738;2023-06-24T08:55:39;22.30;99.90
316;DHT22;14128;48.686;9.738;2023-06-24T08:58:07;22.30;4.00
316;DHT22;14128;48.686;9.738;2023-06-24T09:00:34;22.30;99.90
316;DHT22;14128;48.686;9.738;2023-06-24T09:03:01;22.30;1.00
316;DHT22;14128;48.686;9.738;2023-06-24T09:05:28;22.30;99.90
316;DHT22;14128;48.686;9.738;2023-06-24T09:07:55;22.40;1.00
316;DHT22;14128;48.686;9.738;2023-06-24T09:10:32;22.40;1.00
316;DHT22;14128;48.686;9.738;2023-06-24T09:13:01;22.40;99.90
316;DHT22;14128;48.686;9.738;2023-06-24T09:15:31;22.70;99.90
316;DHT22;14128;48.686;9.738;2023-06-24T09:17:58;23.10;99.90
316;DHT22;14128;48.686;9.738;2023-06-24T09:20:26;23.00;99.90
316;DHT22;14128;48.686;9.738;2023-06-24T09:22:58;23.00;99.90
316;DHT22;14128;48.686;9.738;2023-06-24T09:25:25;22.80;1.00
316;DHT22;14128;48.686;9.738;2023-06-24T09:27:52;22.60;99.90
316;DHT22;14128;48.686;9.738;2023-06-24T09:30:21;22.40;99.90
316;DHT22;14128;48.686;9.738;2023-06-24T09:32:49;22.30;79.70
316;DHT22;14128;48.686;9.738;2023-06-24T09:35:18;22.30;1.40
316;DHT22;14128;48.686;9.738;2023-06-24T09:37:49;22.60;99.90
316;DHT22;14128;48.686;9.738;2023-06-24T09:40:16;22.90;99.90
316;DHT22;14128;48.686;9.738;2023-06-24T09:42:53;23.20;99.90
316;DHT22;14128;48.686;9.738;2023-06-24T09:45:24;23.20;99.90
316;DHT22;14128;48.686;9.738;2023-06-24T09:47:51;23.10;66.80
316;DHT22;14128;48.686;9.738;2023-06-24T09:50:18;22.90;99.90
316;DHT22;14128;48.686;9.738;2023-06-24T09:52:45;22.80;44.00
316;DHT22;14128;48.686;9.738;2023-06-24T09:55:13;22.90;99.90
316;DHT22;14128;48.686;9.738;2023-06-24T09:57:41;22.90;99.90
316;DHT22;14128;48.686;9.738;2023-06-24T10:00:10;23.10;99.90
316;DHT22;14128;48.686;9.738;2023-06-24T10:02:39;23.20;19.10
316;DHT22;14128;48.686;9.738;2023-06-24T10:05:06;23.50;99.90
316;DHT22;14128;48.686;9.738;2023-06-24T10:07:34;23.80;99.90
316;DHT22;14128;48.686;9.738;2023-06-24T10:10:03;24.00;99.90
316;DHT22;14128;48.686;9.738;2023-06-24T10:12:30;23.90;1.00
316;DHT22;14128;48.686;9.738;2023-06-24T10:14:57;23.90;1.00
316;DHT22;14128;48.686;9.738;2023-06-24T10:17:25;23.90;99.90
316;DHT22;14128;48.686;9.738;2023-06-24T10:19:53;23.90;1.00
316;DHT22;14128;48.686;9.738;2023-06-24T10:22:22;24.20;99.90
316;DHT22;14128;48.686;9.738;2023-06-24T10:24:50;24.30;99.90
316;DHT22;14128;48.686;9.738;2023-06-24T10:27:18;24.60;1.40
316;DHT22;14128;48.686;9.738;2023-06-24T10:29:48;24.40;99.90
316;DHT22;14128;48.686;9.738;2023-06-24T10:32:15;24.40;99.90
316;DHT22;14128;48.686;9.738;2023-06-24T10:34:43;24.40;99.90
316;DHT22;14128;48.686;9.738;2023-06-24T10:37:13;24.50;1.00
316;DHT22;14128;48.686;9.738;2023-06-24T10:39:51;24.40;1.00
316;DHT22;14128;48.686;9.738;2023-06-24T10:45:29;24.20;99.90
316;DHT22;14128;48.686;9.738;2023-06-24T10:47:55;24.50;1.00
316;DHT22;14128;48.686;9.738;2023-06-24T10:50:25;24.90;99.90
316;DHT22;14128;48.686;9.738;2023-06-24T10:52:53;25.10;1.00
316;DHT22;14128;48.686;9.738;2023-06-24T10:55:22;25.40;99.90
316;DHT22;14128;48.686;9.738;2023-06-24T10:57:50;25.60;99.90
316;DHT22;14128;48.686;9.738;2023-06-24T11:00:17;25.90;99.90
316;DHT22;14128;48.686;9.738;2023-06-24T11:02:44;26.10;99.90
316;DHT22;14128;48.686;9.738;2023-06-24T11:05:11;26.50;99.90
316;DHT22;14128;48.686;9.738;2023-06-24T11:07:38;26.90;1.00
316;DHT22;14128;48.686;9.738;2023-06-24T11:10:10;27.10;1.00
316;DHT22;14128;48.686;9.738;2023-06-24T11:12:38;27.30;38.90
316;DHT22;14128;48.686;9.738;2023-06-24T11:15:06;27.50;99.90
316;DHT22;14128;48.686;9.738;2023-06-24T11:17:35;27.70;99.90
316;DHT22;14128;48.686;9.738;2023-06-24T11:20:06;27.90;99.90
316;DHT22;14128;48.686;9.738;2023-06-24T11:22:33;27.80;36.70
316;DHT22;14128;48.686;9.738;2023-06-24T11:25:00;27.90;99.90
316;DHT22;14128;48.686;9.738;2023-06-24T11:27:29;27.90;99.90
316;DHT22;14128;48.686;9.738;2023-06-24T11:29:58;27.80;99.90
316;DHT22;14128;48.686;9.738;2023-06-24T11:32:35;27.50;99.90
316;DHT22;14128;48.686;9.738;2023-06-24T11:35:02;27.10;1.00
316;DHT22;14128;48.686;9.738;2023-06-24T11:37:31;27.10;1.00
316;DHT22;14128;48.686;9.738;2023-06-24T11:40:02;27.00;99.90
316;DHT22;14128;48.686;9.738;2023-06-24T11:42:31;26.80;99.90
316;DHT22;14128;48.686;9.738;2023-06-24T11:45:01;26.70;99.90
316;DHT22;14128;48.686;9.738;2023-06-24T11:47:31;26.60;1.00
316;DHT22;14128;48.686;9.738;2023-06-24T11:49:59;26.40;99.90
316;DHT22;14128;48.686;9.738;2023-06-24T11:52:33;26.40;99.90
316;DHT22;14128;48.686;9.738;2023-06-24T11:55:10;26.40;99.90
316;DHT22;14128;48.686;9.738;2023-06-24T11:57:55;26.20;1.40
316;DHT22;14128;48.686;9.738;2023-06-24T12:00:23;25.90;1.40
316;DHT22;14128;48.686;9.738;2023-06-24T12:02:52;25.60;1.40
316;DHT22;14128;48.686;9.738;2023-06-24T12:05:23;25.50;1.40
316;DHT22;14128;48.686;9.738;2023-06-24T12:07:55;25.70;99.90
316;DHT22;14128;48.686;9.738;2023-06-24T12:10:23;25.90;99.90
316;DHT22;14128;48.686;9.738;2023-06-24T12:12:51;26.00;99.90
316;DHT22;14128;48.686;9.738;2023-06-24T12:15:18;26.40;99.90
316;DHT22;14128;48.686;9.738;2023-06-24T12:17:45;26.80;99.90
316;DHT22;14128;48.686;9.738;2023-06-24T12:20:13;27.50;1.00
316;DHT22;14128;48.686;9.738;2023-06-24T12:22:40;28.20;1.40
316;DHT22;14128;48.686;9.738;2023-06-24T12:25:08;28.20;99.90
316;DHT22;14128;48.686;9.738;2023-06-24T12:27:35;28.20;99.90
316;DHT22;14128;48.686;9.738;2023-06-24T12:30:05;28.50;1.00
316;DHT22;14128;48.686;9.738;2023-06-24T12:32:32;29.20;99.90
316;DHT22;14128;48.686;9.738;2023-06-24T12:34:59;30.20;1.00
316;DHT22;14128;48.686;9.738;2023-06-24T12:37:29;30.60;99.90
316;DHT22;14128;48.686;9.738;2023-06-24T12:39:56;31.50;99.90
316;DHT22;14128;48.686;9.738;2023-06-24T12:42:23;32.50;99.90
316;DHT22;14128;48.686;9.738;2023-06-24T12:44:50;33.40;99.90
316;DHT22;14128;48.686;9.738;2023-06-24T12:47:18;34.40;99.90
316;DHT22;14128;48.686;9.738;2023-06-24T12:49:45;35.00;99.90
316;DHT22;14128;48.686;9.738;2023-06-24T12:52:12;35.40;99.90
316;DHT22;14128;48.686;9.738;2023-06-24T12:54:39;35.20;99.90
316;DHT22;14128;48.686;9.738;2023-06-24T12:57:06;35.40;99.90
316;DHT22;14128;48.686;9.738;2023-06-24T12:59:33;35.20;99.90
316;DHT22;14128;48.686;9.738;2023-06-24T13:02:00;35.70;99.90
316;DHT22;14128;48.686;9.738;2023-06-24T13:04:28;36.30;1.40
316;DHT22;14128;48.686;9.738;2023-06-24T13:06:55;36.30;1.40
316;DHT22;14128;48.686;9.738;2023-06-24T13:09:22;34.60;1.40
316;DHT22;14128;48.686;9.738;2023-06-24T13:11:49;32.90;99.90
316;DHT22;14128;48.686;9.738;2023-06-24T13:14:17;31.80;1.40
316;DHT22;14128;48.686;9.738;2023-06-24T13:16:43;32.70;1.40
316;DHT22;14128;48.686;9.738;2023-06-24T13:19:10;34.00;1.40
316;DHT22;14128;48.686;9.738;2023-06-24T13:21:39;35.40;1.40
316;DHT22;14128;48.686;9.738;2023-06-24T13:24:07;36.70;99.90
316;DHT22;14128;48.686;9.738;2023-06-24T13:26:34;38.30;99.90
316;DHT22;14128;48.686;9.738;2023-06-24T13:29:01;39.70;99.90
316;DHT22;14128;48.686;9.738;2023-06-24T13:31:28;40.80;99.90
316;DHT22;14128;48.686;9.738;2023-06-24T13:33:55;41.00;1.00
316;DHT22;14128;48.686;9.738;2023-06-24T13:36:31;42.30;99.90
316;DHT22;14128;48.686;9.738;2023-06-24T13:39:00;42.80;1.40
316;DHT22;14128;48.686;9.738;2023-06-24T13:41:26;41.30;99.90
316;DHT22;14128;48.686;9.738;2023-06-24T13:43:55;38.50;1.40
316;DHT22;14128;48.686;9.738;2023-06-24T13:46:22;36.40;1.40
316;DHT22;14128;48.686;9.738;2023-06-24T13:48:49;34.50;1.40
316;DHT22;14128;48.686;9.738;2023-06-24T13:51:17;36.90;99.90
316;DHT22;14128;48.686;9.738;2023-06-24T13:53:44;40.20;1.40
316;DHT22;14128;48.686;9.738;2023-06-24T13:56:12;42.50;1.40
316;DHT22;14128;48.686;9.738;2023-06-24T13:58:39;44.70;99.90
316;DHT22;14128;48.686;9.738;2023-06-24T14:01:06;45.60;1.40
316;DHT22;14128;48.686;9.738;2023-06-24T14:03:33;46.20;1.40
316;DHT22;14128;48.686;9.738;2023-06-24T14:05:59;43.20;1.40
316;DHT22;14128;48.686;9.738;2023-06-24T14:08:28;45.00;1.40
316;DHT22;14128;48.686;9.738;2023-06-24T14:10:55;46.20;1.40
316;DHT22;14128;48.686;9.738;2023-06-24T14:13:25;47.10;99.90
316;DHT22;14128;48.686;9.738;2023-06-24T14:15:52;48.40;1.40
316;DHT22;14128;48.686;9.738;2023-06-24T14:18:19;49.50;1.40
316;DHT22;14128;48.686;9.738;2023-06-24T14:20:46;50.00;1.40
316;DHT22;14128;48.686;9.738;2023-06-24T14:23:13;44.90;1.40
316;DHT22;14128;48.686;9.738;2023-06-24T14:25:40;41.10;1.40
316;DHT22;14128;48.686;9.738;2023-06-24T14:28:07;38.60;1.40
316;DHT22;14128;48.686;9.738;2023-06-24T14:30:35;36.50;1.40
316;DHT22;14128;48.686;9.738;2023-06-24T14:33:02;35.00;1.40
316;DHT22;14128;48.686;9.738;2023-06-24T14:35:29;33.70;1.40
316;DHT22;14128;48.686;9.738;2023-06-24T14:37:56;32.70;1.40
316;DHT22;14128;48.686;9.738;2023-06-24T14:40:23;31.70;1.40
316;DHT22;14128;48.686;9.738;2023-06-24T14:42:50;31.30;1.40
316;DHT22;14128;48.686;9.738;2023-06-24T14:45:17;38.60;1.40
316;DHT22;14128;48.686;9.738;2023-06-24T14:47:45;43.10;1.40
316;DHT22;14128;48.686;9.738;2023-06-24T14:50:12;46.40;1.40
316;DHT22;14128;48.686;9.738;2023-06-24T14:52:38;48.40;1.40
316;DHT22;14128;48.686;9.738;2023-06-24T14:55:06;49.40;1.40
316;DHT22;14128;48.686;9.738;2023-06-24T14:57:33;48.90;1.40
316;DHT22;14128;48.686;9.738;2023-06-24T15:00:00;50.70;1.40
316;DHT22;14128;48.686;9.738;2023-06-24T15:02:27;50.90;1.40
316;DHT22;14128;48.686;9.738;2023-06-24T15:04:55;51.60;1.40
316;DHT22;14128;48.686;9.738;2023-06-24T15:07:22;48.80;99.90
316;DHT22;14128;48.686;9.738;2023-06-24T15:09:49;49.10;1.40
316;DHT22;14128;48.686;9.738;2023-06-24T15:12:15;48.40;1.40
316;DHT22;14128;48.686;9.738;2023-06-24T15:14:42;45.80;1.40
316;DHT22;14128;48.686;9.738;2023-06-24T15:17:10;45.60;1.40
316;DHT22;14128;48.686;9.738;2023-06-24T15:19:37;46.50;1.40
316;DHT22;14128;48.686;9.738;2023-06-24T15:22:05;44.80;1.40
316;DHT22;14128;48.686;9.738;2023-06-24T15:24:32;48.30;99.90
316;DHT22;14128;48.686;9.738;2023-06-24T15:26:59;48.20;1.40
316;DHT22;14128;48.686;9.738;2023-06-24T15:29:26;50.20;1.40
316;DHT22;14128;48.686;9.738;2023-06-24T15:31:53;50.80;99.90
316;DHT22;14128;48.686;9.738;2023-06-24T15:34:19;51.40;99.90
316;DHT22;14128;48.686;9.738;2023-06-24T15:36:46;51.90;99.90
316;DHT22;14128;48.686;9.738;2023-06-24T15:39:14;49.30;1.00
316;DHT22;14128;48.686;9.738;2023-06-24T15:41:46;47.20;99.90
316;DHT22;14128;48.686;9.738;2023-06-24T15:44:15;49.50;99.90
316;DHT22;14128;48.686;9.738;2023-06-24T15:46:42;50.00;99.90
316;DHT22;14128;48.686;9.738;2023-06-24T15:49:12;50.30;99.90
316;DHT22;14128;48.686;9.738;2023-06-24T15:51:39;51.00;99.90
316;DHT22;14128;48.686;9.738;2023-06-24T15:54:06;50.90;99.90
316;DHT22;14128;48.686;9.738;2023-06-24T15:56:34;50.90;99.90
316;DHT22;14128;48.686;9.738;2023-06-24T15:59:01;51.10;99.90
316;DHT22;14128;48.686;9.738;2023-06-24T16:01:28;51.10;99.90
316;DHT22;14128;48.686;9.738;2023-06-24T16:03:55;51.00;99.90
316;DHT22;14128;48.686;9.738;2023-06-24T16:06:22;50.60;99.90
316;DHT22;14128;48.686;9.738;2023-06-24T16:08:49;50.70;99.90
316;DHT22;14128;48.686;9.738;2023-06-24T16:11:16;49.70;99.90
316;DHT22;14128;48.686;9.738;2023-06-24T16:13:45;49.30;99.90
316;DHT22;14128;48.686;9.738;2023-06-24T16:16:12;50.30;99.90
316;DHT22;14128;48.686;9.738;2023-06-24T16:18:38;50.20;99.90